sensor_id;sensor_type;location;lat;lon;timestamp;pressure;altitude;pressure_sealevel;temperature
69785;BMP280;14177;51.520;6.764;2023-03-12T00:00:05;101029.13;;;2.64
69785;BMP280;14177;51.520;6.764;2023-03-12T00:02:34;101022.31;;;2.65
69785;BMP280;14177;51.520;6.764;2023-03-12T00:05:02;101020.59;;;2.64
69785;BMP280;14177;51.520;6.764;2023-03-12T00:07:29;101020.59;;;2.64
69785;BMP280;14177;51.520;6.764;2023-03-12T00:09:57;101018.03;;;2.65
69785;BMP280;14177;51.520;6.764;2023-03-12T00:12:23;101021.44;;;2.67
69785;BMP280;14177;51.520;6.764;2023-03-12T00:14:50;101006.94;;;2.68
69785;BMP280;14177;51.520;6.764;2023-03-12T00:17:17;101006.06;;;2.69
69785;BMP280;14177;51.520;6.764;2023-03-12T00:19:44;101002.66;;;2.70
69785;BMP280;14177;51.520;6.764;2023-03-12T00:22:11;101005.25;;;2.73
69785;BMP280;14177;51.520;6.764;2023-03-12T00:24:38;101010.38;;;2.73
69785;BMP280;14177;51.520;6.764;2023-03-12T00:27:06;101007.81;;;2.74
69785;BMP280;14177;51.520;6.764;2023-03-12T00:29:34;101006.09;;;2.76
69785;BMP280;14177;51.520;6.764;2023-03-12T00:32:01;101003.56;;;2.81
69785;BMP280;14177;51.520;6.764;2023-03-12T00:34:28;101001.84;;;2.84
69785;BMP280;14177;51.520;6.764;2023-03-12T00:36:55;100991.63;;;2.86
69785;BMP280;14177;51.520;6.764;2023-03-12T00:39:22;100990.75;;;2.96
69785;BMP280;14177;51.520;6.764;2023-03-12T00:41:49;100985.66;;;3.00
69785;BMP280;14177;51.520;6.764;2023-03-12T00:44:15;100984.81;;;3.06
69785;BMP280;14177;51.520;6.764;2023-03-12T00:46:42;100974.56;;;3.12
69785;BMP280;14177;51.520;6.764;2023-03-12T00:49:09;100972.88;;;3.21
69785;BMP280;14177;51.520;6.764;2023-03-12T00:51:37;100978.00;;;3.23
69785;BMP280;14177;51.520;6.764;2023-03-12T00:54:04;100975.44;;;3.24
69785;BMP280;14177;51.520;6.764;2023-03-12T00:56:32;100970.31;;;3.26
69785;BMP280;14177;51.520;6.764;2023-03-12T00:58:59;100973.72;;;3.28
69785;BMP280;14177;51.520;6.764;2023-03-12T01:01:27;100965.16;;;3.36
69785;BMP280;14177;51.520;6.764;2023-03-12T01:03:54;100973.75;;;3.40
69785;BMP280;14177;51.520;6.764;2023-03-12T01:06:21;100960.91;;;3.46
69785;BMP280;14177;51.520;6.764;2023-03-12T01:08:48;100966.91;;;3.48
69785;BMP280;14177;51.520;6.764;2023-03-12T01:11:18;100958.31;;;3.44
69785;BMP280;14177;51.520;6.764;2023-03-12T01:13:46;100953.19;;;3.44
69785;BMP280;14177;51.520;6.764;2023-03-12T01:16:14;100948.06;;;3.43
69785;BMP280;14177;51.520;6.764;2023-03-12T01:18:41;100948.91;;;3.46
69785;BMP280;14177;51.520;6.764;2023-03-12T01:21:08;100945.50;;;3.49
69785;BMP280;14177;51.520;6.764;2023-03-12T01:23:36;100938.66;;;3.49
69785;BMP280;14177;51.520;6.764;2023-03-12T01:26:03;100945.50;;;3.49
69785;BMP280;14177;51.520;6.764;2023-03-12T01:28:30;100939.50;;;3.48
69785;BMP280;14177;51.520;6.764;2023-03-12T01:30:57;100938.66;;;3.45
69785;BMP280;14177;51.520;6.764;2023-03-12T01:33:24;100940.38;;;3.46
69785;BMP280;14177;51.520;6.764;2023-03-12T01:35:51;100931.81;;;3.41
69785;BMP280;14177;51.520;6.764;2023-03-12T01:38:18;100942.91;;;3.41
69785;BMP280;14177;51.520;6.764;2023-03-12T01:40:46;100931.81;;;3.41
69785;BMP280;14177;51.520;6.764;2023-03-12T01:43:35;100928.38;;;3.39
69785;BMP280;14177;51.520;6.764;2023-03-12T01:46:25;100924.94;;;3.37
69785;BMP280;14177;51.520;6.764;2023-03-12T01:49:07;100924.94;;;3.37
69785;BMP280;14177;51.520;6.764;2023-03-12T01:51:47;100915.53;;;3.36
69785;BMP280;14177;51.520;6.764;2023-03-12T01:54:25;100924.94;;;3.37
69785;BMP280;14177;51.520;6.764;2023-03-12T01:56:56;100930.09;;;3.37
69785;BMP280;14177;51.520;6.764;2023-03-12T01:59:37;100930.09;;;3.37
69785;BMP280;14177;51.520;6.764;2023-03-12T02:02:07;100921.53;;;3.38
69785;BMP280;14177;51.520;6.764;2023-03-12T02:04:36;100895.84;;;3.42
69785;BMP280;14177;51.520;6.764;2023-03-12T02:07:13;100899.25;;;3.47
69785;BMP280;14177;51.520;6.764;2023-03-12T02:09:45;100898.41;;;3.50
69785;BMP280;14177;51.520;6.764;2023-03-12T02:12:13;100894.97;;;3.49
69785;BMP280;14177;51.520;6.764;2023-03-12T02:14:41;100894.13;;;3.52
69785;BMP280;14177;51.520;6.764;2023-03-12T02:17:09;100889.00;;;3.52
69785;BMP280;14177;51.520;6.764;2023-03-12T02:22:49;100887.28;;;3.54
69785;BMP280;14177;51.520;6.764;2023-03-12T02:25:45;100880.44;;;3.56
69785;BMP280;14177;51.520;6.764;2023-03-12T02:28:17;100883.00;;;3.58
69785;BMP280;14177;51.520;6.764;2023-03-12T02:30:50;100894.97;;;3.58
69785;BMP280;14177;51.520;6.764;2023-03-12T02:33:18;100888.13;;;3.63
69785;BMP280;14177;51.520;6.764;2023-03-12T02:35:47;100881.28;;;3.63
69785;BMP280;14177;51.520;6.764;2023-03-12T02:38:35;100880.38;;;3.64
69785;BMP280;14177;51.520;6.764;2023-03-12T02:41:15;100875.25;;;3.64
69785;BMP280;14177;51.520;6.764;2023-03-12T02:43:49;100887.25;;;3.68
69785;BMP280;14177;51.520;6.764;2023-03-12T02:46:17;100875.25;;;3.69
69785;BMP280;14177;51.520;6.764;2023-03-12T02:48:45;100877.84;;;3.69
69785;BMP280;14177;51.520;6.764;2023-03-12T02:51:11;100859.84;;;3.66
69785;BMP280;14177;51.520;6.764;2023-03-12T02:53:39;100862.41;;;3.67
69785;BMP280;14177;51.520;6.764;2023-03-12T02:56:06;100855.56;;;3.65
69785;BMP280;14177;51.520;6.764;2023-03-12T02:58:33;100847.84;;;3.69
69785;BMP280;14177;51.520;6.764;2023-03-12T03:01:01;100854.75;;;3.61
69785;BMP280;14177;51.520;6.764;2023-03-12T03:03:28;100842.75;;;3.59
69785;BMP280;14177;51.520;6.764;2023-03-12T03:05:55;100845.31;;;3.62
69785;BMP280;14177;51.520;6.764;2023-03-12T03:08:22;100842.72;;;3.62
69785;BMP280;14177;51.520;6.764;2023-03-12T03:10:50;100846.19;;;3.59
69785;BMP280;14177;51.520;6.764;2023-03-12T03:13:18;100836.75;;;3.60
69785;BMP280;14177;51.520;6.764;2023-03-12T03:15:45;100829.88;;;3.66
69785;BMP280;14177;51.520;6.764;2023-03-12T03:18:12;100835.84;;;3.68
69785;BMP280;14177;51.520;6.764;2023-03-12T03:20:39;100833.28;;;3.68
69785;BMP280;14177;51.520;6.764;2023-03-12T03:23:06;100840.13;;;3.66
69785;BMP280;14177;51.520;6.764;2023-03-12T03:25:33;100837.56;;;3.66
69785;BMP280;14177;51.520;6.764;2023-03-12T03:28:00;100829.88;;;3.62
69785;BMP280;14177;51.520;6.764;2023-03-12T03:30:27;100821.34;;;3.58
69785;BMP280;14177;51.520;6.764;2023-03-12T03:32:54;100821.31;;;3.63
69785;BMP280;14177;51.520;6.764;2023-03-12T03:35:21;100827.34;;;3.63
69785;BMP280;14177;51.520;6.764;2023-03-12T03:37:50;100827.31;;;3.62
69785;BMP280;14177;51.520;6.764;2023-03-12T03:40:17;100822.16;;;3.66
69785;BMP280;14177;51.520;6.764;2023-03-12T03:42:44;100820.44;;;3.65
69785;BMP280;14177;51.520;6.764;2023-03-12T03:45:11;100813.59;;;3.70
69785;BMP280;14177;51.520;6.764;2023-03-12T03:47:40;100810.16;;;3.68
69785;BMP280;14177;51.520;6.764;2023-03-12T03:50:09;100813.59;;;3.67
69785;BMP280;14177;51.520;6.764;2023-03-12T03:52:36;100818.72;;;3.70
69785;BMP280;14177;51.520;6.764;2023-03-12T03:55:04;100813.59;;;3.72
69785;BMP280;14177;51.520;6.764;2023-03-12T03:57:31;100818.72;;;3.72
69785;BMP280;14177;51.520;6.764;2023-03-12T03:59:59;100811.88;;;3.74
69785;BMP280;14177;51.520;6.764;2023-03-12T04:02:39;100819.56;;;3.72
69785;BMP280;14177;51.520;6.764;2023-03-12T04:05:09;100818.72;;;3.72
69785;BMP280;14177;51.520;6.764;2023-03-12T04:07:37;100818.69;;;3.76
69785;BMP280;14177;51.520;6.764;2023-03-12T04:10:05;100811.88;;;3.77
69785;BMP280;14177;51.520;6.764;2023-03-12T04:12:32;100814.44;;;3.75
69785;BMP280;14177;51.520;6.764;2023-03-12T04:14:59;100807.56;;;3.77
69785;BMP280;14177;51.520;6.764;2023-03-12T04:17:26;100806.69;;;3.87
69785;BMP280;14177;51.520;6.764;2023-03-12T04:19:55;100810.97;;;3.87
69785;BMP280;14177;51.520;6.764;2023-03-12T04:22:23;100816.97;;;3.87
69785;BMP280;14177;51.520;6.764;2023-03-12T04:24:50;100816.97;;;3.86
69785;BMP280;14177;51.520;6.764;2023-03-12T04:27:17;100809.25;;;3.90
69785;BMP280;14177;51.520;6.764;2023-03-12T04:29:44;100796.38;;;3.90
69785;BMP280;14177;51.520;6.764;2023-03-12T04:32:11;100791.25;;;3.87
69785;BMP280;14177;51.520;6.764;2023-03-12T04:34:38;100789.56;;;3.88
69785;BMP280;14177;51.520;6.764;2023-03-12T04:37:07;100788.69;;;3.87
69785;BMP280;14177;51.520;6.764;2023-03-12T04:39:34;100788.69;;;3.87
69785;BMP280;14177;51.520;6.764;2023-03-12T04:42:01;100780.97;;;3.90
69785;BMP280;14177;51.520;6.764;2023-03-12T04:44:29;100783.56;;;3.92
69785;BMP280;14177;51.520;6.764;2023-03-12T04:46:56;100782.69;;;3.91
69785;BMP280;14177;51.520;6.764;2023-03-12T04:49:24;100780.94;;;3.96
69785;BMP280;14177;51.520;6.764;2023-03-12T04:51:53;100773.25;;;3.95
69785;BMP280;14177;51.520;6.764;2023-03-12T04:54:20;100772.34;;;4.00
69785;BMP280;14177;51.520;6.764;2023-03-12T04:56:49;100767.22;;;3.97
69785;BMP280;14177;51.520;6.764;2023-03-12T04:59:18;100765.53;;;3.95
69785;BMP280;14177;51.520;6.764;2023-03-12T05:01:45;100755.25;;;3.96
69785;BMP280;14177;51.520;6.764;2023-03-12T05:04:18;100751.78;;;4.03
69785;BMP280;14177;51.520;6.764;2023-03-12T05:06:45;100750.91;;;4.03
69785;BMP280;14177;51.520;6.764;2023-03-12T05:09:12;100743.22;;;4.04
69785;BMP280;14177;51.520;6.764;2023-03-12T05:11:40;100740.59;;;4.09
69785;BMP280;14177;51.520;6.764;2023-03-12T05:14:12;100727.72;;;4.12
69785;BMP280;14177;51.520;6.764;2023-03-12T05:16:41;100742.34;;;4.08
69785;BMP280;14177;51.520;6.764;2023-03-12T05:19:08;100741.47;;;4.12
69785;BMP280;14177;51.520;6.764;2023-03-12T05:21:35;100731.16;;;4.12
69785;BMP280;14177;51.520;6.764;2023-03-12T05:24:03;100735.47;;;4.10
69785;BMP280;14177;51.520;6.764;2023-03-12T05:26:32;100740.59;;;4.10
69785;BMP280;14177;51.520;6.764;2023-03-12T05:29:08;100741.50;;;4.06
69785;BMP280;14177;51.520;6.764;2023-03-12T05:31:35;100744.03;;;4.05
69785;BMP280;14177;51.520;6.764;2023-03-12T05:34:04;100743.19;;;4.10
69785;BMP280;14177;51.520;6.764;2023-03-12T05:36:35;100729.47;;;4.08
69785;BMP280;14177;51.520;6.764;2023-03-12T05:39:04;100734.59;;;4.11
69785;BMP280;14177;51.520;6.764;2023-03-12T05:41:38;100732.91;;;4.07
69785;BMP280;14177;51.520;6.764;2023-03-12T05:44:38;100729.47;;;4.08
69785;BMP280;14177;51.520;6.764;2023-03-12T05:47:12;100720.03;;;4.13
69785;BMP280;14177;51.520;6.764;2023-03-12T05:49:45;100708.91;;;4.11
69785;BMP280;14177;51.520;6.764;2023-03-12T05:52:35;100693.50;;;4.08
69785;BMP280;14177;51.520;6.764;2023-03-12T05:55:12;100687.47;;;4.11
69785;BMP280;14177;51.520;6.764;2023-03-12T05:57:48;100687.44;;;4.14
69785;BMP280;14177;51.520;6.764;2023-03-12T06:00:19;100665.19;;;4.11
69785;BMP280;14177;51.520;6.764;2023-03-12T06:02:59;100663.47;;;4.09
69785;BMP280;14177;51.520;6.764;2023-03-12T06:05:43;100668.63;;;4.09
69785;BMP280;14177;51.520;6.764;2023-03-12T06:09:04;100671.22;;;4.04
69785;BMP280;14177;51.520;6.764;2023-03-12T06:11:47;100647.19;;;4.14
69785;BMP280;14177;51.520;6.764;2023-03-12T06:14:15;100655.78;;;4.06
69785;BMP280;14177;51.520;6.764;2023-03-12T06:16:43;100666.06;;;4.07
69785;BMP280;14177;51.520;6.764;2023-03-12T06:19:13;100672.06;;;4.05
69785;BMP280;14177;51.520;6.764;2023-03-12T06:21:55;100667.81;;;4.02
69785;BMP280;14177;51.520;6.764;2023-03-12T06:24:33;100678.94;;;4.03
69785;BMP280;14177;51.520;6.764;2023-03-12T06:27:05;100680.66;;;4.05
69785;BMP280;14177;51.520;6.764;2023-03-12T06:29:34;100675.50;;;4.05
69785;BMP280;14177;51.520;6.764;2023-03-12T06:32:02;100675.47;;;4.07
69785;BMP280;14177;51.520;6.764;2023-03-12T06:34:29;100675.47;;;4.11
69785;BMP280;14177;51.520;6.764;2023-03-12T06:36:58;100676.34;;;4.07
69785;BMP280;14177;51.520;6.764;2023-03-12T06:39:31;100668.59;;;4.12
69785;BMP280;14177;51.520;6.764;2023-03-12T06:42:02;100658.28;;;4.15
69785;BMP280;14177;51.520;6.764;2023-03-12T06:44:33;100655.69;;;4.18
69785;BMP280;14177;51.520;6.764;2023-03-12T06:47:01;100654.88;;;4.17
69785;BMP280;14177;51.520;6.764;2023-03-12T06:49:28;100649.78;;;4.08
69785;BMP280;14177;51.520;6.764;2023-03-12T06:51:59;100658.31;;;4.12
69785;BMP280;14177;51.520;6.764;2023-03-12T06:54:26;100654.03;;;4.15
69785;BMP280;14177;51.520;6.764;2023-03-12T06:56:54;100655.78;;;4.10
69785;BMP280;14177;51.520;6.764;2023-03-12T06:59:21;100667.72;;;4.17
69785;BMP280;14177;51.520;6.764;2023-03-12T07:01:48;100658.28;;;4.15
69785;BMP280;14177;51.520;6.764;2023-03-12T07:04:16;100653.19;;;4.13
69785;BMP280;14177;51.520;6.764;2023-03-12T07:06:43;100666.91;;;4.08
69785;BMP280;14177;51.520;6.764;2023-03-12T07:09:10;100660.03;;;4.14
69785;BMP280;14177;51.520;6.764;2023-03-12T07:11:37;100665.19;;;4.10
69785;BMP280;14177;51.520;6.764;2023-03-12T07:14:04;100666.94;;;4.06
69785;BMP280;14177;51.520;6.764;2023-03-12T07:16:31;100666.94;;;4.06
69785;BMP280;14177;51.520;6.764;2023-03-12T07:18:58;100665.28;;;3.96
69785;BMP280;14177;51.520;6.764;2023-03-12T07:21:25;100678.16;;;3.93
69785;BMP280;14177;51.520;6.764;2023-03-12T07:23:52;100671.25;;;3.98
69785;BMP280;14177;51.520;6.764;2023-03-12T07:26:19;100659.28;;;3.97
69785;BMP280;14177;51.520;6.764;2023-03-12T07:28:46;100660.16;;;3.98
69785;BMP280;14177;51.520;6.764;2023-03-12T07:31:13;100657.56;;;3.99
69785;BMP280;14177;51.520;6.764;2023-03-12T07:33:40;100648.94;;;4.06
69785;BMP280;14177;51.520;6.764;2023-03-12T07:36:07;100648.94;;;4.02
69785;BMP280;14177;51.520;6.764;2023-03-12T07:38:35;100640.41;;;4.01
69785;BMP280;14177;51.520;6.764;2023-03-12T07:41:02;100652.38;;;4.02
69785;BMP280;14177;51.520;6.764;2023-03-12T07:43:30;100643.81;;;4.03
69785;BMP280;14177;51.520;6.764;2023-03-12T07:45:57;100637.88;;;3.97
69785;BMP280;14177;51.520;6.764;2023-03-12T07:48:24;100619.88;;;3.95
69785;BMP280;14177;51.520;6.764;2023-03-12T07:50:52;100634.44;;;3.98
69785;BMP280;14177;51.520;6.764;2023-03-12T07:53:18;100637.84;;;4.00
69785;BMP280;14177;51.520;6.764;2023-03-12T07:55:46;100622.38;;;4.06
69785;BMP280;14177;51.520;6.764;2023-03-12T07:58:15;100623.19;;;4.12
69785;BMP280;14177;51.520;6.764;2023-03-12T08:00:43;100630.00;;;4.18
69785;BMP280;14177;51.520;6.764;2023-03-12T08:03:11;100622.25;;;4.21
69785;BMP280;14177;51.520;6.764;2023-03-12T08:05:39;100614.53;;;4.22
69785;BMP280;14177;51.520;6.764;2023-03-12T08:08:06;100626.50;;;4.29
69785;BMP280;14177;51.520;6.764;2023-03-12T08:10:33;100622.22;;;4.28
69785;BMP280;14177;51.520;6.764;2023-03-12T08:13:00;100618.78;;;4.29
69785;BMP280;14177;51.520;6.764;2023-03-12T08:15:27;100617.91;;;4.30
69785;BMP280;14177;51.520;6.764;2023-03-12T08:17:54;100614.44;;;4.34
69785;BMP280;14177;51.520;6.764;2023-03-12T08:20:21;100615.28;;;4.35
69785;BMP280;14177;51.520;6.764;2023-03-12T08:22:48;100606.63;;;4.45
69785;BMP280;14177;51.520;6.764;2023-03-12T08:25:15;100608.28;;;4.50
69785;BMP280;14177;51.520;6.764;2023-03-12T08:27:44;100616.78;;;4.60
69785;BMP280;14177;51.520;6.764;2023-03-12T08:30:12;100611.59;;;4.66
69785;BMP280;14177;51.520;6.764;2023-03-12T08:32:39;100608.91;;;4.73
69785;BMP280;14177;51.520;6.764;2023-03-12T08:35:06;100609.75;;;4.75
69785;BMP280;14177;51.520;6.764;2023-03-12T08:37:33;100611.44;;;4.77
69785;BMP280;14177;51.520;6.764;2023-03-12T08:40:01;100609.56;;;4.93
69785;BMP280;14177;51.520;6.764;2023-03-12T08:42:28;100615.59;;;4.92
69785;BMP280;14177;51.520;6.764;2023-03-12T08:44:54;100612.16;;;4.91
69785;BMP280;14177;51.520;6.764;2023-03-12T08:47:21;100601.94;;;4.84
69785;BMP280;14177;51.520;6.764;2023-03-12T08:49:48;100591.59;;;4.88
69785;BMP280;14177;51.520;6.764;2023-03-12T08:52:15;100596.69;;;4.91
69785;BMP280;14177;51.520;6.764;2023-03-12T08:54:43;100599.28;;;4.91
69785;BMP280;14177;51.520;6.764;2023-03-12T08:57:09;100596.66;;;4.96
69785;BMP280;14177;51.520;6.764;2023-03-12T08:59:37;100601.84;;;4.93
69785;BMP280;14177;51.520;6.764;2023-03-12T09:02:04;100595.84;;;4.92
69785;BMP280;14177;51.520;6.764;2023-03-12T09:04:31;100602.63;;;4.99
69785;BMP280;14177;51.520;6.764;2023-03-12T09:07:00;100603.47;;;5.03
69785;BMP280;14177;51.520;6.764;2023-03-12T09:09:27;100609.50;;;4.99
69785;BMP280;14177;51.520;6.764;2023-03-12T09:11:54;100596.59;;;5.02
69785;BMP280;14177;51.520;6.764;2023-03-12T09:14:21;100582.81;;;5.04
69785;BMP280;14177;51.520;6.764;2023-03-12T09:17:08;100585.41;;;5.06
69785;BMP280;14177;51.520;6.764;2023-03-12T09:19:35;100603.44;;;5.06
69785;BMP280;14177;51.520;6.764;2023-03-12T09:22:02;100592.28;;;5.02
69785;BMP280;14177;51.520;6.764;2023-03-12T09:24:28;100592.19;;;5.11
69785;BMP280;14177;51.520;6.764;2023-03-12T09:26:56;100616.31;;;5.06
69785;BMP280;14177;51.520;6.764;2023-03-12T09:29:23;100608.66;;;5.00
69785;BMP280;14177;51.520;6.764;2023-03-12T09:31:50;100621.47;;;5.01
69785;BMP280;14177;51.520;6.764;2023-03-12T09:34:17;100622.38;;;4.99
69785;BMP280;14177;51.520;6.764;2023-03-12T09:36:44;100619.84;;;4.96
69785;BMP280;14177;51.520;6.764;2023-03-12T09:39:11;100625.78;;;5.01
69785;BMP280;14177;51.520;6.764;2023-03-12T09:41:40;100624.06;;;5.01
69785;BMP280;14177;51.520;6.764;2023-03-12T09:44:33;100621.50;;;5.00
69785;BMP280;14177;51.520;6.764;2023-03-12T09:49:57;100626.63;;;5.01
69785;BMP280;14177;51.520;6.764;2023-03-12T09:52:41;100624.91;;;5.05
69785;BMP280;14177;51.520;6.764;2023-03-12T09:55:15;100635.13;;;5.09
69785;BMP280;14177;51.520;6.764;2023-03-12T09:57:45;100637.66;;;5.11
69785;BMP280;14177;51.520;6.764;2023-03-12T10:00:20;100635.91;;;5.16
69785;BMP280;14177;51.520;6.764;2023-03-12T10:02:52;100634.16;;;5.18
69785;BMP280;14177;51.520;6.764;2023-03-12T10:19:04;100626.72;;;5.65
69785;BMP280;14177;51.520;6.764;2023-03-12T10:24:18;100631.75;;;5.74
69785;BMP280;14177;51.520;6.764;2023-03-12T10:26:56;100627.41;;;5.79
69785;BMP280;14177;51.520;6.764;2023-03-12T10:29:30;100627.28;;;5.85
69785;BMP280;14177;51.520;6.764;2023-03-12T10:32:14;100633.25;;;5.90
69785;BMP280;14177;51.520;6.764;2023-03-12T10:34:54;100628.00;;;5.96
69785;BMP280;14177;51.520;6.764;2023-03-12T10:37:42;100640.06;;;5.94
69785;BMP280;14177;51.520;6.764;2023-03-12T10:40:27;100645.19;;;5.97
69785;BMP280;14177;51.520;6.764;2023-03-12T10:42:55;100648.63;;;5.96
69785;BMP280;14177;51.520;6.764;2023-03-12T10:46:10;100634.84;;;5.97
69785;BMP280;14177;51.520;6.764;2023-03-12T10:48:42;100635.50;;;6.12
69785;BMP280;14177;51.520;6.764;2023-03-12T10:51:11;100619.75;;;6.27
69785;BMP280;14177;51.520;6.764;2023-03-12T10:53:41;100633.44;;;6.33
69785;BMP280;14177;51.520;6.764;2023-03-12T10:56:15;100642.75;;;6.43
69785;BMP280;14177;51.520;6.764;2023-03-12T10:58:46;100646.97;;;6.47
69785;BMP280;14177;51.520;6.764;2023-03-12T11:01:25;100633.84;;;6.59
69785;BMP280;14177;51.520;6.764;2023-03-12T11:04:13;100638.84;;;6.68
69785;BMP280;14177;51.520;6.764;2023-03-12T11:06:42;100636.88;;;6.82
69785;BMP280;14177;51.520;6.764;2023-03-12T11:09:17;100635.06;;;6.89
69785;BMP280;14177;51.520;6.764;2023-03-12T11:11:48;100630.56;;;6.97
69785;BMP280;14177;51.520;6.764;2023-03-12T11:14:26;100631.22;;;7.09
69785;BMP280;14177;51.520;6.764;2023-03-12T11:16:55;100630.22;;;7.16
69785;BMP280;14177;51.520;6.764;2023-03-12T11:19:32;100632.56;;;7.28
69785;BMP280;14177;51.520;6.764;2023-03-12T11:22:05;100621.19;;;7.36
69785;BMP280;14177;51.520;6.764;2023-03-12T11:24:34;100619.25;;;7.46
69785;BMP280;14177;51.520;6.764;2023-03-12T11:27:39;100618.81;;;7.67
69785;BMP280;14177;51.520;6.764;2023-03-12T11:30:13;100608.34;;;7.73
69785;BMP280;14177;51.520;6.764;2023-03-12T11:32:47;100609.69;;;7.89
69785;BMP280;14177;51.520;6.764;2023-03-12T11:35:20;100604.25;;;8.01
69785;BMP280;14177;51.520;6.764;2023-03-12T11:38:02;100608.28;;;8.11
69785;BMP280;14177;51.520;6.764;2023-03-12T11:43:48;100608.50;;;8.38
69785;BMP280;14177;51.520;6.764;2023-03-12T11:49:55;100620.59;;;8.72
69785;BMP280;14177;51.520;6.764;2023-03-12T11:53:08;100624.53;;;8.85
69785;BMP280;14177;51.520;6.764;2023-03-12T11:56:23;100630.06;;;9.05
69785;BMP280;14177;51.520;6.764;2023-03-12T12:01:55;100616.69;;;9.19
69785;BMP280;14177;51.520;6.764;2023-03-12T12:08:15;100615.44;;;9.33
69785;BMP280;14177;51.520;6.764;2023-03-12T12:14:10;100614.97;;;9.50
69785;BMP280;14177;51.520;6.764;2023-03-12T12:16:58;100612.00;;;9.62
69785;BMP280;14177;51.520;6.764;2023-03-12T12:36:13;100585.94;;;9.93
69785;BMP280;14177;51.520;6.764;2023-03-12T12:38:57;100575.41;;;9.98
69785;BMP280;14177;51.520;6.764;2023-03-12T12:41:33;100576.09;;;10.04
69785;BMP280;14177;51.520;6.764;2023-03-12T12:44:10;100569.00;;;10.09
69785;BMP280;14177;51.520;6.764;2023-03-12T12:46:48;100578.38;;;10.15
69785;BMP280;14177;51.520;6.764;2023-03-12T12:52:06;100561.53;;;10.26
69785;BMP280;14177;51.520;6.764;2023-03-12T12:57:38;100564.84;;;10.30
69785;BMP280;14177;51.520;6.764;2023-03-12T13:03:17;100561.72;;;10.46
69785;BMP280;14177;51.520;6.764;2023-03-12T13:05:56;100566.47;;;10.58
69785;BMP280;14177;51.520;6.764;2023-03-12T13:16:40;100551.50;;;10.90
69785;BMP280;14177;51.520;6.764;2023-03-12T13:27:37;100525.78;;;11.29
69785;BMP280;14177;51.520;6.764;2023-03-12T13:30:49;100526.16;;;11.41
69785;BMP280;14177;51.520;6.764;2023-03-12T13:33:20;100527.34;;;11.56
69785;BMP280;14177;51.520;6.764;2023-03-12T13:36:19;100514.84;;;11.65
69785;BMP280;14177;51.520;6.764;2023-03-12T13:39:21;100516.13;;;11.77
69785;BMP280;14177;51.520;6.764;2023-03-12T13:41:59;100510.53;;;11.86
69785;BMP280;14177;51.520;6.764;2023-03-12T13:49:45;100504.94;;;12.16
69785;BMP280;14177;51.520;6.764;2023-03-12T13:54:45;100492.34;;;12.25
69785;BMP280;14177;51.520;6.764;2023-03-12T13:57:27;100484.53;;;12.25
69785;BMP280;14177;51.520;6.764;2023-03-12T13:59:57;100481.91;;;12.27
69785;BMP280;14177;51.520;6.764;2023-03-12T14:02:41;100487.22;;;12.24
69785;BMP280;14177;51.520;6.764;2023-03-12T14:05:14;100489.06;;;12.22
69785;BMP280;14177;51.520;6.764;2023-03-12T14:10:35;100479.03;;;12.33
69785;BMP280;14177;51.520;6.764;2023-03-12T14:13:28;100486.50;;;12.40
69785;BMP280;14177;51.520;6.764;2023-03-12T14:18:36;100480.50;;;12.38
69785;BMP280;14177;51.520;6.764;2023-03-12T14:21:09;100476.31;;;12.36
69785;BMP280;14177;51.520;6.764;2023-03-12T14:23:54;100501.16;;;12.43
69785;BMP280;14177;51.520;6.764;2023-03-12T14:26:29;100494.13;;;12.45
69785;BMP280;14177;51.520;6.764;2023-03-12T14:29:19;100482.91;;;12.43
69785;BMP280;14177;51.520;6.764;2023-03-12T14:31:47;100493.34;;;12.43
69785;BMP280;14177;51.520;6.764;2023-03-12T14:34:21;100488.06;;;12.44
69785;BMP280;14177;51.520;6.764;2023-03-12T14:39:32;100515.09;;;12.62
69785;BMP280;14177;51.520;6.764;2023-03-12T14:42:06;100507.41;;;12.59
69785;BMP280;14177;51.520;6.764;2023-03-12T14:44:37;100518.34;;;12.67
69785;BMP280;14177;51.520;6.764;2023-03-12T14:47:11;100518.22;;;12.70
69785;BMP280;14177;51.520;6.764;2023-03-12T14:49:45;100525.13;;;12.71
69785;BMP280;14177;51.520;6.764;2023-03-12T14:52:23;100530.31;;;12.71
69785;BMP280;14177;51.520;6.764;2023-03-12T14:55:06;100512.09;;;12.71
69785;BMP280;14177;51.520;6.764;2023-03-12T14:57:34;100525.13;;;12.71
69785;BMP280;14177;51.520;6.764;2023-03-12T15:00:00;100525.00;;;12.74
69785;BMP280;14177;51.520;6.764;2023-03-12T15:02:30;100524.28;;;12.70
69785;BMP280;14177;51.520;6.764;2023-03-12T15:05:01;100521.53;;;12.73
69785;BMP280;14177;51.520;6.764;2023-03-12T15:07:35;100519.91;;;12.71
69785;BMP280;14177;51.520;6.764;2023-03-12T15:10:17;100517.50;;;12.66
69785;BMP280;14177;51.520;6.764;2023-03-12T15:12:46;100512.44;;;12.63
69785;BMP280;14177;51.520;6.764;2023-03-12T15:15:35;100509.22;;;12.57
69785;BMP280;14177;51.520;6.764;2023-03-12T15:18:13;100523.00;;;12.60
69785;BMP280;14177;51.520;6.764;2023-03-12T15:20:42;100519.47;;;12.61
69785;BMP280;14177;51.520;6.764;2023-03-12T15:23:12;100533.41;;;12.60
69785;BMP280;14177;51.520;6.764;2023-03-12T15:25:40;100520.38;;;12.60
69785;BMP280;14177;51.520;6.764;2023-03-12T15:28:26;100520.28;;;12.62
69785;BMP280;14177;51.520;6.764;2023-03-12T15:31:13;100520.44;;;12.59
69785;BMP280;14177;51.520;6.764;2023-03-12T15:34:04;100525.06;;;12.52
69785;BMP280;14177;51.520;6.764;2023-03-12T15:36:33;100513.78;;;12.52
69785;BMP280;14177;51.520;6.764;2023-03-12T15:39:20;100524.34;;;12.49
69785;BMP280;14177;51.520;6.764;2023-03-12T15:41:50;100529.69;;;12.46
69785;BMP280;14177;51.520;6.764;2023-03-12T15:44:34;100536.72;;;12.44
69785;BMP280;14177;51.520;6.764;2023-03-12T15:47:18;100537.75;;;12.40
69785;BMP280;14177;51.520;6.764;2023-03-12T15:50:03;100534.38;;;12.38
69785;BMP280;14177;51.520;6.764;2023-03-12T15:52:34;100541.34;;;12.37
69785;BMP280;14177;51.520;6.764;2023-03-12T15:57:52;100524.72;;;12.40
69785;BMP280;14177;51.520;6.764;2023-03-12T16:00:29;100528.09;;;12.42
69785;BMP280;14177;51.520;6.764;2023-03-12T16:03:02;100527.28;;;12.41
69785;BMP280;14177;51.520;6.764;2023-03-12T16:05:36;100529.88;;;12.41
69785;BMP280;14177;51.520;6.764;2023-03-12T16:08:36;100530.78;;;12.40
69785;BMP280;14177;51.520;6.764;2023-03-12T16:11:13;100534.22;;;12.41
69785;BMP280;14177;51.520;6.764;2023-03-12T16:13:41;100534.44;;;12.36